createdAt,value
2023-01-19T00:00:21.886Z,94053.97
2023-01-19T00:02:48.661Z,94054.22
2023-01-19T00:05:15.331Z,94056.09
2023-01-19T00:07:42.079Z,94063.34
2023-01-19T00:10:10.064Z,94072.31
2023-01-19T00:12:36.614Z,94074.84
2023-01-19T00:15:03.477Z,94080.16
2023-01-19T00:17:30.223Z,94087.44
2023-01-19T00:19:56.748Z,94087.59
2023-01-19T00:22:23.334Z,94082.72
2023-01-19T00:24:50.471Z,94085.25
2023-01-19T00:27:17.071Z,94088.38
2023-01-19T00:29:43.617Z,94098.38
2023-01-19T00:32:10.291Z,94091.06
2023-01-19T00:34:36.901Z,94094.16
2023-01-19T00:37:04.213Z,94093.28
2023-01-19T00:39:30.948Z,94092.47
2023-01-19T00:42:16.082Z,94101.91
2023-01-19T00:44:42.699Z,94106.66
2023-01-19T00:47:09.698Z,94102.72
2023-01-19T00:49:36.305Z,94099.59
2023-01-19T00:52:03.035Z,94103.31
2023-01-19T00:54:29.555Z,94110.34
2023-01-19T00:56:56.300Z,94104.97
2023-01-19T00:59:22.910Z,94107.50
2023-01-19T01:01:49.634Z,94112.63
2023-01-19T01:04:16.311Z,94111.09
2023-01-19T01:06:42.905Z,94108.72
2023-01-19T01:09:12.142Z,94116.63
2023-01-19T01:11:42.744Z,94124.59
2023-01-19T01:14:13.147Z,94123.75
2023-01-19T01:16:40.171Z,94124.88
2023-01-19T01:19:06.826Z,94127.81
2023-01-19T01:21:34.626Z,94129.47
2023-01-19T01:24:01.755Z,94131.13
2023-01-19T01:26:28.362Z,94123.88
2023-01-19T01:28:54.888Z,94136.66
2023-01-19T01:31:21.479Z,94136.44
2023-01-19T01:33:48.011Z,94147.19
2023-01-19T01:36:14.652Z,94142.94
2023-01-19T01:38:41.791Z,94142.31
2023-01-19T01:41:09.025Z,94151.53
2023-01-19T01:43:50.869Z,94148.16
2023-01-19T01:46:18.195Z,94149.31
2023-01-19T01:48:50.428Z,94152.84
2023-01-19T01:51:28.991Z,94144.41
2023-01-19T01:54:04.855Z,94152.84
2023-01-19T01:56:35.696Z,94155.66
2023-01-19T01:59:07.605Z,94159.56
2023-01-19T02:01:53.939Z,94161.69
2023-01-19T02:04:21.157Z,94160.56
2023-01-19T02:07:07.040Z,94171.75
2023-01-19T02:09:54.975Z,94165.06
2023-01-19T02:12:41.232Z,94161.38
2023-01-19T02:15:18.987Z,94165.53
2023-01-19T02:17:46.458Z,94170.91
2023-01-19T02:20:13.811Z,94171.03
2023-01-19T02:22:51.254Z,94169.44
2023-01-19T02:25:19.487Z,94176.78
2023-01-19T02:27:46.932Z,94171.31
2023-01-19T02:30:14.279Z,94176.09
2023-01-19T02:32:40.853Z,94168.06
2023-01-19T02:35:07.646Z,94176.38
2023-01-19T02:37:39.988Z,94179.38
2023-01-19T02:40:12.367Z,94180.31
2023-01-19T02:42:45.673Z,94185.38
2023-01-19T02:45:19.897Z,94180.06
2023-01-19T02:47:49.243Z,94186.31
2023-01-19T02:50:38.585Z,94183.03
2023-01-19T02:53:11.583Z,94188.03
2023-01-19T02:55:40.250Z,94196.69
2023-01-19T02:58:31.633Z,94192.03
2023-01-19T03:01:29.406Z,94193.38
2023-01-19T03:04:04.311Z,94186.31
2023-01-19T03:06:47.018Z,94188.03
2023-01-19T03:09:19.433Z,94189.00
2023-01-19T03:11:54.257Z,94183.03
2023-01-19T03:14:26.677Z,94184.38
2023-01-19T03:17:01.787Z,94178.97
2023-01-19T03:19:37.750Z,94173.03
2023-01-19T03:22:09.668Z,94170.81
2023-01-19T03:24:40.288Z,94171.97
2023-01-19T03:27:25.428Z,94173.47
2023-01-19T03:29:57.683Z,94182.09
2023-01-19T03:32:31.418Z,94184.81
2023-01-19T03:35:03.239Z,94191.09
2023-01-19T03:37:31.730Z,94185.09
2023-01-19T03:39:58.306Z,94194.50
2023-01-19T03:42:27.034Z,94193.13
2023-01-19T03:44:56.465Z,94189.88
2023-01-19T03:47:24.727Z,94193.41
2023-01-19T03:49:53.151Z,94194.00
2023-01-19T03:52:28.324Z,94194.50
2023-01-19T03:54:55.249Z,94193.44
2023-01-19T03:57:22.142Z,94198.59
2023-01-19T03:59:49.463Z,94196.28
2023-01-19T04:02:16.094Z,94207.03
2023-01-19T04:04:42.736Z,94209.75
2023-01-19T04:07:10.936Z,94202.97
2023-01-19T04:09:37.569Z,94205.69
2023-01-19T04:12:04.290Z,94205.94
2023-01-19T04:14:30.828Z,94200.63
2023-01-19T04:16:57.388Z,94200.22
2023-01-19T04:19:24.992Z,94190.38
2023-01-19T04:21:51.786Z,94196.00
2023-01-19T04:24:18.430Z,94197.94
2023-01-19T04:26:45.012Z,94197.53
2023-01-19T04:29:11.585Z,94188.13
2023-01-19T04:31:38.207Z,94189.06
2023-01-19T04:34:04.729Z,94201.34
2023-01-19T04:36:31.348Z,94192.47
2023-01-19T04:38:57.910Z,94197.94
2023-01-19T04:41:24.487Z,94189.88
2023-01-19T04:43:51.040Z,94192.19
2023-01-19T04:46:17.634Z,94200.41
2023-01-19T04:48:44.250Z,94196.56
2023-01-19T04:51:10.780Z,94192.63
2023-01-19T04:53:37.392Z,94193.03
2023-01-19T04:56:04.085Z,94206.78
2023-01-19T04:58:30.668Z,94208.16
2023-01-19T05:00:57.264Z,94207.19
2023-01-19T05:03:25.676Z,94209.25
2023-01-19T05:05:53.330Z,94211.28
2023-01-19T05:08:19.908Z,94209.50
2023-01-19T05:10:47.949Z,94213.56
2023-01-19T05:13:14.472Z,94218.47
2023-01-19T05:15:41.032Z,94215.22
2023-01-19T05:18:07.563Z,94220.94
2023-01-19T05:20:34.105Z,94219.84
2023-01-19T05:23:01.083Z,94228.44
2023-01-19T05:25:27.853Z,94230.47
2023-01-19T05:27:54.536Z,94224.59
2023-01-19T05:30:21.309Z,94227.34
2023-01-19T05:32:47.818Z,94234.84
2023-01-19T05:35:16.664Z,94231.13
2023-01-19T05:37:44.772Z,94234.81
2023-01-19T05:40:11.738Z,94239.56
2023-01-19T05:42:38.502Z,94240.91
2023-01-19T05:45:05.717Z,94247.97
2023-01-19T05:47:32.322Z,94248.25
2023-01-19T05:49:58.972Z,94248.78
2023-01-19T05:52:25.517Z,94245.22
2023-01-19T05:54:53.036Z,94253.09
2023-01-19T05:57:19.534Z,94258.00
2023-01-19T05:59:46.298Z,94252.84
2023-01-19T06:02:12.963Z,94256.09
2023-01-19T06:04:39.588Z,94255.97
2023-01-19T06:07:06.978Z,94272.16
2023-01-19T06:09:33.657Z,94270.66
2023-01-19T06:12:00.255Z,94271.66
2023-01-19T06:14:27.002Z,94275.56
2023-01-19T06:16:53.556Z,94266.03
2023-01-19T06:19:20.127Z,94280.25
2023-01-19T06:21:49.771Z,94277.66
2023-01-19T06:24:16.485Z,94280.50
2023-01-19T06:26:43.722Z,94283.19
2023-01-19T06:29:12.092Z,94283.19
2023-01-19T06:31:38.647Z,94285.94
2023-01-19T06:34:05.258Z,94282.78
2023-01-19T06:36:31.939Z,94279.06
2023-01-19T06:38:58.887Z,94288.50
2023-01-19T06:41:25.390Z,94298.84
2023-01-19T06:43:51.915Z,94295.16
2023-01-19T06:46:18.491Z,94294.47
2023-01-19T06:48:45.079Z,94300.13
2023-01-19T06:51:11.581Z,94303.78
2023-01-19T06:53:38.967Z,94306.91
2023-01-19T06:56:06.685Z,94306.66
2023-01-19T06:58:34.780Z,94303.53
2023-01-19T07:01:03.984Z,94307.25
2023-01-19T07:03:30.922Z,94314.03
2023-01-19T07:05:57.599Z,94311.03
2023-01-19T07:08:24.251Z,94313.19
2023-01-19T07:11:25.420Z,94322.00
2023-01-19T07:13:38.657Z,94330.91
2023-01-19T07:16:11.886Z,94330.94
2023-01-19T07:18:39.910Z,94327.34
2023-01-19T07:21:07.190Z,94324.00
2023-01-19T07:23:34.769Z,94325.59
2023-01-19T07:26:01.993Z,94321.94
2023-01-19T07:28:29.633Z,94334.72
2023-01-19T07:30:56.666Z,94334.41
2023-01-19T07:33:25.042Z,94331.94
2023-01-19T07:35:53.179Z,94342.09
2023-01-19T07:38:20.341Z,94344.88
2023-01-19T07:40:46.993Z,94343.69
2023-01-19T07:43:14.035Z,94346.09
2023-01-19T07:45:40.763Z,94345.63
2023-01-19T07:48:07.585Z,94352.28
2023-01-19T07:50:34.117Z,94349.75
2023-01-19T07:53:08.857Z,94348.81
2023-01-19T07:55:35.749Z,94350.72
2023-01-19T07:58:06.436Z,94358.50
2023-01-19T08:00:35.236Z,94356.94
2023-01-19T08:03:04.034Z,94354.75
2023-01-19T08:05:32.044Z,94352.97
2023-01-19T08:07:58.994Z,94363.50
2023-01-19T08:10:26.980Z,94361.66
2023-01-19T08:12:54.376Z,94364.09
2023-01-19T08:15:23.907Z,94367.72
2023-01-19T08:17:58.097Z,94367.66
2023-01-19T08:20:25.641Z,94373.69
2023-01-19T08:22:59.727Z,94375.97
2023-01-19T08:25:34.771Z,94380.53
2023-01-19T08:28:02.181Z,94380.47
2023-01-19T08:30:28.897Z,94385.13
2023-01-19T08:33:03.797Z,94387.00
2023-01-19T08:35:31.447Z,94393.69
2023-01-19T08:38:01.152Z,94387.03
2023-01-19T08:40:35.060Z,94397.22
2023-01-19T08:43:07.849Z,94392.88
2023-01-19T08:45:41.328Z,94390.63
2023-01-19T08:48:08.248Z,94403.50
2023-01-19T08:50:35.043Z,94398.31
2023-01-19T08:53:03.601Z,94399.06
2023-01-19T08:55:30.589Z,94391.69
2023-01-19T08:57:58.088Z,94401.28
2023-01-19T09:00:25.374Z,94396.63
2023-01-19T09:02:51.922Z,94399.81
2023-01-19T09:05:18.660Z,94388.34
2023-01-19T09:07:47.873Z,94400.78
2023-01-19T09:10:15.530Z,94399.34
2023-01-19T09:12:42.158Z,94396.19
2023-01-19T09:15:10.644Z,94394.81
2023-01-19T09:17:37.396Z,94393.91
2023-01-19T09:20:05.853Z,94392.66
2023-01-19T09:22:33.246Z,94389.59
2023-01-19T09:25:00.334Z,94400.31
2023-01-19T09:27:26.923Z,94393.34
2023-01-19T09:29:54.021Z,94400.59
2023-01-19T09:32:21.577Z,94402.78
2023-01-19T09:34:48.258Z,94401.53
2023-01-19T09:37:16.095Z,94409.59
2023-01-19T09:39:42.739Z,94397.72
2023-01-19T09:42:21.804Z,94394.88
2023-01-19T09:44:50.447Z,94405.47
2023-01-19T09:47:21.099Z,94406.41
2023-01-19T09:49:54.960Z,94407.25
2023-01-19T09:52:22.457Z,94403.53
2023-01-19T09:54:52.829Z,94397.13
2023-01-19T09:57:21.316Z,94398.78
2023-01-19T09:59:50.774Z,94397.59
2023-01-19T10:02:32.803Z,94407.56
2023-01-19T10:05:19.379Z,94409.53
2023-01-19T10:07:58.303Z,94394.19
2023-01-19T10:10:27.264Z,94396.66
2023-01-19T10:13:10.539Z,94409.72
2023-01-19T10:15:45.212Z,94404.50
2023-01-19T10:18:13.552Z,94404.97
2023-01-19T10:21:04.564Z,94396.91
2023-01-19T10:23:41.075Z,94397.19
2023-01-19T10:26:36.308Z,94399.09
2023-01-19T10:29:14.563Z,94406.13
2023-01-19T10:31:44.763Z,94401.03
2023-01-19T10:34:20.413Z,94400.13
2023-01-19T10:36:52.869Z,94389.13
2023-01-19T10:39:19.894Z,94403.97
2023-01-19T10:41:50.017Z,94395.59
2023-01-19T10:44:28.497Z,94403.84
2023-01-19T10:46:59.263Z,94400.53
2023-01-19T10:49:29.935Z,94396.31
2023-01-19T10:51:58.469Z,94391.91
2023-01-19T10:54:27.606Z,94390.13
2023-01-19T10:56:57.398Z,94395.81
2023-01-19T10:59:52.280Z,94391.91
2023-01-19T11:02:27.697Z,94392.44
2023-01-19T11:04:57.497Z,94388.97
2023-01-19T11:07:26.919Z,94384.84
2023-01-19T11:10:11.866Z,94378.47
2023-01-19T11:13:04.100Z,94377.19
2023-01-19T11:15:41.515Z,94383.66
2023-01-19T11:18:08.347Z,94379.09
2023-01-19T11:20:52.744Z,94375.53
2023-01-19T11:23:41.935Z,94387.50
2023-01-19T11:26:15.734Z,94372.09
2023-01-19T11:28:51.315Z,94372.00
2023-01-19T11:31:29.334Z,94374.31
2023-01-19T11:34:05.995Z,94365.59
2023-01-19T11:36:35.749Z,94368.22
2023-01-19T11:39:30.121Z,94368.47
2023-01-19T11:42:06.267Z,94371.59
2023-01-19T11:44:36.411Z,94369.75
2023-01-19T11:47:06.218Z,94368.19
2023-01-19T11:49:58.290Z,94354.81
2023-01-19T11:52:34.657Z,94361.34
2023-01-19T11:55:21.395Z,94350.31
2023-01-19T11:57:53.432Z,94354.44
2023-01-19T12:00:31.214Z,94348.28
2023-01-19T12:03:19.764Z,94348.88
2023-01-19T12:05:51.091Z,94345.34
2023-01-19T12:08:30.425Z,94342.84
2023-01-19T12:10:59.844Z,94343.84
2023-01-19T12:13:30.236Z,94346.28
2023-01-19T12:16:04.589Z,94345.56
2023-01-19T12:18:38.661Z,94328.28
2023-01-19T12:21:05.386Z,94345.06
2023-01-19T12:23:50.961Z,94345.13
2023-01-19T12:26:29.587Z,94342.69
2023-01-19T12:29:18.634Z,94339.06
2023-01-19T12:31:45.632Z,94345.22
2023-01-19T12:34:31.352Z,94341.81
2023-01-19T12:37:03.881Z,94343.00
2023-01-19T12:39:32.905Z,94340.97
2023-01-19T12:42:15.101Z,94346.81
2023-01-19T12:44:42.876Z,94342.69
2023-01-19T12:47:15.573Z,94345.72
2023-01-19T12:49:48.130Z,94342.81
2023-01-19T12:52:40.411Z,94334.47
2023-01-19T12:55:12.972Z,94343.81
2023-01-19T12:57:41.738Z,94338.59
2023-01-19T13:00:30.162Z,94338.91
2023-01-19T13:02:59.381Z,94335.19
2023-01-19T13:05:25.999Z,94338.38
2023-01-19T13:08:01.663Z,94332.00
2023-01-19T13:10:50.286Z,94334.72
2023-01-19T13:13:19.525Z,94336.91
2023-01-19T13:15:46.347Z,94330.72
2023-01-19T13:18:29.482Z,94331.91
2023-01-19T13:21:03.369Z,94324.75
2023-01-19T13:23:56.324Z,94322.81
2023-01-19T13:26:26.197Z,94327.34
2023-01-19T13:28:57.071Z,94331.06
2023-01-19T13:31:25.460Z,94328.44
2023-01-19T13:33:55.110Z,94326.38
2023-01-19T13:36:31.063Z,94319.94
2023-01-19T13:39:01.597Z,94334.31
2023-01-19T13:41:32.969Z,94326.75
2023-01-19T13:44:09.361Z,94328.03
2023-01-19T13:46:38.479Z,94333.41
2023-01-19T13:49:17.113Z,94335.84
2023-01-19T13:51:43.633Z,94335.59
2023-01-19T13:54:16.821Z,94342.03
2023-01-19T13:56:52.428Z,94337.91
2023-01-19T13:59:19.025Z,94329.81
2023-01-19T14:01:46.672Z,94338.00
2023-01-19T14:04:31.263Z,94334.00
2023-01-19T14:07:02.173Z,94344.53
2023-01-19T14:09:28.791Z,94335.13
2023-01-19T14:12:25.644Z,94338.09
2023-01-19T14:14:52.388Z,94333.19
2023-01-19T14:17:28.380Z,94335.19
2023-01-19T14:20:01.117Z,94341.81
2023-01-19T14:22:42.795Z,94344.47
2023-01-19T14:25:29.450Z,94349.38
2023-01-19T14:28:39.446Z,94352.13
2023-01-19T14:31:24.865Z,94360.13
2023-01-19T14:33:55.546Z,94353.72
2023-01-19T14:36:34.500Z,94352.88
2023-01-19T14:39:02.263Z,94361.94
2023-01-19T14:41:39.800Z,94363.50
2023-01-19T14:44:11.507Z,94358.59
2023-01-19T14:46:44.119Z,94364.09
2023-01-19T14:49:20.385Z,94366.03
2023-01-19T14:51:48.932Z,94361.47
2023-01-19T14:54:19.186Z,94360.28
2023-01-19T14:56:45.840Z,94368.22
2023-01-19T14:59:12.588Z,94368.59
2023-01-19T15:01:39.420Z,94369.00
2023-01-19T15:04:06.075Z,94373.06
2023-01-19T15:06:34.620Z,94378.25
2023-01-19T15:09:01.182Z,94375.28
2023-01-19T15:11:32.574Z,94385.34
2023-01-19T15:13:59.528Z,94373.94
2023-01-19T15:16:27.636Z,94380.28
2023-01-19T15:18:54.620Z,94384.63
2023-01-19T15:21:26.636Z,94396.97
2023-01-19T15:23:54.524Z,94397.50
2023-01-19T15:26:23.830Z,94400.22
2023-01-19T15:28:50.708Z,94385.97
2023-01-19T15:31:25.724Z,94385.44
2023-01-19T15:33:52.457Z,94385.72
2023-01-19T15:36:24.096Z,94388.09
2023-01-19T15:38:51.048Z,94390.91
2023-01-19T15:41:28.597Z,94393.94
2023-01-19T15:43:55.729Z,94389.94
2023-01-19T15:46:23.611Z,94388.00
2023-01-19T15:48:50.662Z,94389.78
2023-01-19T15:51:20.207Z,94393.75
2023-01-19T15:53:47.585Z,94388.44
2023-01-19T15:56:32.230Z,94397.75
2023-01-19T15:58:59.140Z,94393.19
2023-01-19T16:01:32.172Z,94397.75
2023-01-19T16:04:01.376Z,94392.53
2023-01-19T16:06:29.199Z,94397.47
2023-01-19T16:08:59.674Z,94398.75
2023-01-19T16:11:28.900Z,94405.75
2023-01-19T16:13:55.552Z,94397.81
2023-01-19T16:16:23.717Z,94408.72
2023-01-19T16:18:50.642Z,94407.38
2023-01-19T16:21:17.434Z,94402.13
2023-01-19T16:23:44.026Z,94409.16
2023-01-19T16:26:30.339Z,94404.91
2023-01-19T16:29:09.761Z,94406.94
2023-01-19T16:31:37.652Z,94406.56
2023-01-19T16:34:04.240Z,94408.66
2023-01-19T16:36:32.985Z,94409.25
2023-01-19T16:39:01.375Z,94402.59
2023-01-19T16:41:28.129Z,94412.19
2023-01-19T16:43:56.463Z,94404.28
2023-01-19T16:46:32.463Z,94405.47
2023-01-19T16:49:01.185Z,94406.56
2023-01-19T16:51:27.946Z,94404.78
2023-01-19T16:53:54.539Z,94401.88
2023-01-19T16:56:21.166Z,94400.66
2023-01-19T16:58:47.704Z,94400.56
2023-01-19T17:01:20.351Z,94400.38
2023-01-19T17:03:47.849Z,94401.00
2023-01-19T17:06:18.086Z,94405.56
2023-01-19T17:08:45.055Z,94397.00
2023-01-19T17:11:20.757Z,94410.03
2023-01-19T17:13:48.799Z,94410.47
2023-01-19T17:16:15.566Z,94407.28
2023-01-19T17:18:42.210Z,94410.09
2023-01-19T17:21:10.169Z,94411.09
2023-01-19T17:23:37.456Z,94412.84
2023-01-19T17:26:04.985Z,94411.13
2023-01-19T17:28:31.553Z,94405.09
2023-01-19T17:31:07.138Z,94401.81
2023-01-19T17:33:35.127Z,94402.88
2023-01-19T17:36:09.801Z,94401.25
2023-01-19T17:38:36.920Z,94406.00
2023-01-19T17:41:18.606Z,94399.50
2023-01-19T17:43:45.995Z,94397.09
2023-01-19T17:46:13.223Z,94401.38
2023-01-19T17:48:39.993Z,94398.63
2023-01-19T17:51:09.517Z,94405.25
2023-01-19T17:53:37.172Z,94407.09
2023-01-19T17:56:05.285Z,94403.47
2023-01-19T17:58:32.137Z,94405.47
2023-01-19T18:00:58.947Z,94405.31
2023-01-19T18:03:25.562Z,94410.47
2023-01-19T18:05:55.732Z,94402.09
2023-01-19T18:08:22.262Z,94409.78
2023-01-19T18:10:56.331Z,94418.53
2023-01-19T18:13:23.650Z,94412.81
2023-01-19T18:15:50.343Z,94414.50
2023-01-19T18:18:17.859Z,94421.00
2023-01-19T18:20:44.669Z,94411.25
2023-01-19T18:23:12.018Z,94412.88
2023-01-19T18:25:39.656Z,94412.00
2023-01-19T18:28:07.156Z,94413.34
2023-01-19T18:30:35.015Z,94412.56
2023-01-19T18:33:01.742Z,94410.81
2023-01-19T18:35:28.765Z,94417.00
2023-01-19T18:37:56.906Z,94410.63
2023-01-19T18:40:23.882Z,94414.06
2023-01-19T18:42:50.847Z,94413.94
2023-01-19T18:45:17.412Z,94414.22
2023-01-19T18:47:44.066Z,94418.50
2023-01-19T18:50:12.984Z,94415.94
2023-01-19T18:52:40.202Z,94420.47
2023-01-19T18:55:07.042Z,94414.72
2023-01-19T18:57:35.562Z,94421.69
2023-01-19T19:00:03.693Z,94412.25
2023-01-19T19:02:30.339Z,94416.63
2023-01-19T19:04:56.890Z,94415.06
2023-01-19T19:07:23.546Z,94414.97
2023-01-19T19:09:50.203Z,94415.78
2023-01-19T19:12:16.727Z,94418.06
2023-01-19T19:14:43.438Z,94423.34
2023-01-19T19:17:09.957Z,94415.72
2023-01-19T19:19:36.491Z,94414.50
2023-01-19T19:22:03.425Z,94406.72
2023-01-19T19:24:30.221Z,94407.97
2023-01-19T19:26:56.941Z,94405.88
2023-01-19T19:29:23.476Z,94408.50
2023-01-19T19:31:50.053Z,94401.25
2023-01-19T19:34:16.660Z,94400.97
2023-01-19T19:36:43.179Z,94407.19
2023-01-19T19:39:09.713Z,94408.44
2023-01-19T19:41:38.245Z,94405.47
2023-01-19T19:44:04.854Z,94400.44
2023-01-19T19:46:31.492Z,94401.47
2023-01-19T19:48:58.066Z,94407.19
2023-01-19T19:51:27.546Z,94406.19
2023-01-19T19:53:58.932Z,94402.16
2023-01-19T19:56:28.760Z,94403.34
2023-01-19T19:58:57.162Z,94400.88
2023-01-19T20:01:28.460Z,94400.88
2023-01-19T20:03:57.272Z,94408.25
2023-01-19T20:06:25.053Z,94405.56
2023-01-19T20:08:53.579Z,94404.75
2023-01-19T20:11:23.457Z,94400.88
2023-01-19T20:13:50.969Z,94406.06
2023-01-19T20:16:19.718Z,94408.72
2023-01-19T20:18:50.744Z,94411.00
2023-01-19T20:21:20.579Z,94412.69
2023-01-19T20:23:48.849Z,94412.09
2023-01-19T20:26:18.647Z,94410.22
2023-01-19T20:28:45.418Z,94413.81
2023-01-19T20:31:16.513Z,94413.09
2023-01-19T20:33:44.069Z,94411.59
2023-01-19T20:36:11.560Z,94416.28
2023-01-19T20:38:39.450Z,94406.19
2023-01-19T20:41:07.775Z,94406.47
2023-01-19T20:43:35.041Z,94406.78
2023-01-19T20:46:01.816Z,94417.47
2023-01-19T20:48:28.562Z,94415.53
2023-01-19T20:51:00.040Z,94416.09
2023-01-19T20:53:26.755Z,94419.34
2023-01-19T20:55:53.331Z,94415.25
2023-01-19T20:58:20.030Z,94404.63
2023-01-19T21:00:46.727Z,94403.28
2023-01-19T21:03:13.708Z,94409.81
2023-01-19T21:05:40.644Z,94412.31
2023-01-19T21:08:07.289Z,94415.72
2023-01-19T21:10:33.817Z,94410.69
2023-01-19T21:13:00.340Z,94404.50
2023-01-19T21:15:26.877Z,94410.53
2023-01-19T21:17:53.536Z,94408.34
2023-01-19T21:20:20.195Z,94402.19
2023-01-19T21:22:46.788Z,94407.41
2023-01-19T21:25:13.613Z,94406.75
2023-01-19T21:27:40.242Z,94410.94
2023-01-19T21:30:07.334Z,94408.25
2023-01-19T21:32:33.851Z,94419.81
2023-01-19T21:35:00.462Z,94408.25
2023-01-19T21:37:30.341Z,94423.66
2023-01-19T21:39:57.480Z,94421.75
2023-01-19T21:42:24.002Z,94420.22
2023-01-19T21:44:50.527Z,94420.22
2023-01-19T21:47:17.080Z,94423.78
2023-01-19T21:49:43.922Z,94423.38
2023-01-19T21:52:10.447Z,94423.09
2023-01-19T21:54:37.000Z,94427.31
2023-01-19T21:57:03.673Z,94426.22
2023-01-19T21:59:30.179Z,94429.50
2023-01-19T22:01:56.929Z,94434.00
2023-01-19T22:04:23.514Z,94432.25
2023-01-19T22:06:50.092Z,94431.69
2023-01-19T22:09:16.734Z,94439.19
2023-01-19T22:11:43.240Z,94443.97
2023-01-19T22:14:11.335Z,94443.81
2023-01-19T22:16:37.879Z,94447.34
2023-01-19T22:19:07.237Z,94442.72
2023-01-19T22:21:35.778Z,94451.88
2023-01-19T22:24:04.108Z,94448.31
2023-01-19T22:26:32.232Z,94445.59
2023-01-19T22:29:00.293Z,94446.41
2023-01-19T22:31:28.534Z,94450.91
2023-01-19T22:33:55.775Z,94451.84
2023-01-19T22:36:23.702Z,94456.66
2023-01-19T22:39:01.873Z,94458.69
2023-01-19T22:41:34.022Z,94467.44
2023-01-19T22:44:03.425Z,94464.03
2023-01-19T22:46:33.037Z,94460.47
2023-01-19T22:49:00.225Z,94460.59
2023-01-19T22:51:28.138Z,94468.66
2023-01-19T22:53:54.862Z,94462.66
2023-01-19T22:56:27.345Z,94464.16
2023-01-19T22:58:54.065Z,94468.66
2023-01-19T23:01:23.170Z,94463.34
2023-01-19T23:03:50.160Z,94458.44
2023-01-19T23:06:19.294Z,94462.66
2023-01-19T23:08:46.034Z,94461.97
2023-01-19T23:11:24.266Z,94464.03
2023-01-19T23:13:50.915Z,94458.56
2023-01-19T23:16:18.207Z,94458.56
2023-01-19T23:18:45.518Z,94461.69
2023-01-19T23:21:15.002Z,94453.25
2023-01-19T23:23:42.686Z,94448.06
2023-01-19T23:26:11.829Z,94456.50
2023-01-19T23:28:39.475Z,94459.53
2023-01-19T23:31:30.125Z,94449.41
2023-01-19T23:33:59.943Z,94449.41
2023-01-19T23:36:29.195Z,94454.06
2023-01-19T23:38:58.312Z,94449.13
2023-01-19T23:41:26.212Z,94458.16
2023-01-19T23:43:52.778Z,94456.94
2023-01-19T23:46:19.803Z,94454.22
2023-01-19T23:48:46.670Z,94456.09
2023-01-19T23:51:16.635Z,94455.84
2023-01-19T23:53:43.499Z,94454.75
2023-01-19T23:56:11.375Z,94454.59
2023-01-19T23:58:38.710Z,94457.88
